You are not logged in, Click here to log in
機場資訊:VABB Welcome to Taiwan Airways 台灣虛擬航空
ICAO: VABB Country: 印度共和國馬哈拉施特拉邦首府孟買
Latitude: 19.0902 Longitude: 72.8687
Total Arrivals: 20 Total Departures: 21
Latest Arrival: CX2067 (EBBR-VABB)KE. CHIH-HAO Latest Departure: AI639 (VABB-VOBL)KE. CHIH-HAO
Scenery:
METAR : VABB 211230Z 29008KT 4000 HZ FEW018 FEW025TCU BKN100 30/25 Q1007 NOSIG

賈特拉帕蒂·希瓦吉國際機場BOM